sensor_id;sensor_type;location;lat;lon;timestamp;noise_LAeq;noise_LA_min;noise_LA_max;noise_LA01;noise_LA95
67310;Laerm;65444;51.438;5.982;2023-09-07T00:00:05;29.13;27.73;31.27;;
67310;Laerm;65444;51.438;5.982;2023-09-07T00:00:20;31.97;27.83;43.84;;
67310;Laerm;65444;51.438;5.982;2023-09-07T00:00:31;29.03;27.43;30.32;;
67310;Laerm;65444;51.438;5.982;2023-09-07T00:00:42;29.21;27.68;34.72;;
67310;Laerm;65444;51.438;5.982;2023-09-07T00:00:52;29.25;27.81;31.93;;
67310;Laerm;65444;51.438;5.982;2023-09-07T00:01:06;29.30;27.98;32.21;;
67310;Laerm;65444;51.438;5.982;2023-09-07T00:01:20;29.30;27.91;36.37;;
67310;Laerm;65444;51.438;5.982;2023-09-07T00:01:31;29.88;27.43;42.53;;
67310;Laerm;65444;51.438;5.982;2023-09-07T00:01:42;29.52;28.16;30.95;;
67310;Laerm;65444;51.438;5.982;2023-09-07T00:01:58;30.16;27.99;43.61;;
67310;Laerm;65444;51.438;5.982;2023-09-07T00:02:09;31.56;28.92;45.48;;
67310;Laerm;65444;51.438;5.982;2023-09-07T00:02:20;33.84;30.30;38.02;;
67310;Laerm;65444;51.438;5.982;2023-09-07T00:02:33;40.48;35.76;43.06;;
67310;Laerm;65444;51.438;5.982;2023-09-07T00:02:44;47.89;39.34;54.18;;
67310;Laerm;65444;51.438;5.982;2023-09-07T00:02:54;53.41;51.09;56.66;;
67310;Laerm;65444;51.438;5.982;2023-09-07T00:03:05;54.96;51.90;57.57;;
67310;Laerm;65444;51.438;5.982;2023-09-07T00:03:15;52.74;50.06;54.87;;
67310;Laerm;65444;51.438;5.982;2023-09-07T00:03:26;43.95;34.99;51.70;;
67310;Laerm;65444;51.438;5.982;2023-09-07T00:03:36;35.53;33.12;37.48;;
67310;Laerm;65444;51.438;5.982;2023-09-07T00:03:52;31.53;28.07;40.30;;
67310;Laerm;65444;51.438;5.982;2023-09-07T00:04:03;29.93;28.46;33.48;;
67310;Laerm;65444;51.438;5.982;2023-09-07T00:04:14;29.80;28.25;33.94;;
67310;Laerm;65444;51.438;5.982;2023-09-07T00:04:30;29.85;28.24;33.47;;
67310;Laerm;65444;51.438;5.982;2023-09-07T00:04:41;29.93;27.92;33.43;;
67310;Laerm;65444;51.438;5.982;2023-09-07T00:04:53;30.90;28.42;48.01;;
67310;Laerm;65444;51.438;5.982;2023-09-07T00:05:09;30.17;28.40;34.95;;
67310;Laerm;65444;51.438;5.982;2023-09-07T00:05:20;30.49;28.36;43.49;;
67310;Laerm;65444;51.438;5.982;2023-09-07T00:05:31;31.06;28.48;44.28;;
67310;Laerm;65444;51.438;5.982;2023-09-07T00:05:41;30.39;28.50;44.28;;
67310;Laerm;65444;51.438;5.982;2023-09-07T00:05:52;30.41;28.49;33.21;;
67310;Laerm;65444;51.438;5.982;2023-09-07T00:06:02;30.67;29.12;32.91;;
67310;Laerm;65444;51.438;5.982;2023-09-07T00:06:13;32.09;29.38;41.12;;
67310;Laerm;65444;51.438;5.982;2023-09-07T00:06:23;32.73;30.30;39.25;;
67310;Laerm;65444;51.438;5.982;2023-09-07T00:06:33;32.28;29.87;37.86;;
67310;Laerm;65444;51.438;5.982;2023-09-07T00:06:44;31.70;29.23;34.10;;
67310;Laerm;65444;51.438;5.982;2023-09-07T00:06:55;31.32;29.29;38.77;;
67310;Laerm;65444;51.438;5.982;2023-09-07T00:07:05;31.39;28.95;39.25;;
67310;Laerm;65444;51.438;5.982;2023-09-07T00:07:16;30.96;28.28;40.05;;
67310;Laerm;65444;51.438;5.982;2023-09-07T00:07:26;30.29;28.55;32.93;;
67310;Laerm;65444;51.438;5.982;2023-09-07T00:07:37;30.14;28.44;32.00;;
67310;Laerm;65444;51.438;5.982;2023-09-07T00:07:47;30.01;28.36;36.16;;
67310;Laerm;65444;51.438;5.982;2023-09-07T00:07:58;30.04;28.56;32.08;;
67310;Laerm;65444;51.438;5.982;2023-09-07T00:08:08;29.84;27.98;33.94;;
67310;Laerm;65444;51.438;5.982;2023-09-07T00:08:19;29.63;28.27;31.24;;
67310;Laerm;65444;51.438;5.982;2023-09-07T00:08:29;29.83;28.17;39.08;;
67310;Laerm;65444;51.438;5.982;2023-09-07T00:08:40;29.24;27.82;32.58;;
67310;Laerm;65444;51.438;5.982;2023-09-07T00:08:51;29.27;28.01;33.24;;
67310;Laerm;65444;51.438;5.982;2023-09-07T00:09:02;29.13;27.65;30.34;;
67310;Laerm;65444;51.438;5.982;2023-09-07T00:09:12;29.39;27.97;36.61;;
67310;Laerm;65444;51.438;5.982;2023-09-07T00:09:23;29.65;27.90;38.63;;
67310;Laerm;65444;51.438;5.982;2023-09-07T00:09:34;29.26;27.75;36.19;;
67310;Laerm;65444;51.438;5.982;2023-09-07T00:09:45;29.27;27.80;33.60;;
67310;Laerm;65444;51.438;5.982;2023-09-07T00:09:55;29.34;27.78;38.33;;
67310;Laerm;65444;51.438;5.982;2023-09-07T00:10:06;29.30;28.02;30.59;;
67310;Laerm;65444;51.438;5.982;2023-09-07T00:10:16;29.30;28.01;31.25;;
67310;Laerm;65444;51.438;5.982;2023-09-07T00:10:27;29.40;28.05;31.77;;
67310;Laerm;65444;51.438;5.982;2023-09-07T00:10:38;29.33;28.06;31.89;;
67310;Laerm;65444;51.438;5.982;2023-09-07T00:10:48;29.25;27.83;30.52;;
67310;Laerm;65444;51.438;5.982;2023-09-07T00:11:02;29.39;27.81;34.07;;
67310;Laerm;65444;51.438;5.982;2023-09-07T00:11:13;29.19;27.69;31.23;;
67310;Laerm;65444;51.438;5.982;2023-09-07T00:11:23;29.33;27.74;34.34;;
67310;Laerm;65444;51.438;5.982;2023-09-07T00:11:34;29.26;28.05;34.59;;
67310;Laerm;65444;51.438;5.982;2023-09-07T00:11:44;29.30;27.97;32.20;;
67310;Laerm;65444;51.438;5.982;2023-09-07T00:11:55;29.41;27.87;35.86;;
67310;Laerm;65444;51.438;5.982;2023-09-07T00:12:06;29.25;27.62;32.40;;
67310;Laerm;65444;51.438;5.982;2023-09-07T00:12:16;29.39;28.18;33.47;;
67310;Laerm;65444;51.438;5.982;2023-09-07T00:12:27;29.33;27.48;31.21;;
67310;Laerm;65444;51.438;5.982;2023-09-07T00:12:37;29.44;28.05;33.34;;
67310;Laerm;65444;51.438;5.982;2023-09-07T00:12:49;29.71;28.07;39.14;;
67310;Laerm;65444;51.438;5.982;2023-09-07T00:13:00;29.51;28.23;37.48;;
67310;Laerm;65444;51.438;5.982;2023-09-07T00:13:10;29.45;28.14;32.71;;
67310;Laerm;65444;51.438;5.982;2023-09-07T00:13:20;29.34;28.22;34.68;;
67310;Laerm;65444;51.438;5.982;2023-09-07T00:13:38;29.39;28.26;31.38;;
67310;Laerm;65444;51.438;5.982;2023-09-07T00:13:48;29.66;28.16;33.80;;
67310;Laerm;65444;51.438;5.982;2023-09-07T00:14:00;29.65;28.24;31.82;;
67310;Laerm;65444;51.438;5.982;2023-09-07T00:14:11;29.64;28.01;34.72;;
67310;Laerm;65444;51.438;5.982;2023-09-07T00:14:21;29.98;28.35;37.70;;
67310;Laerm;65444;51.438;5.982;2023-09-07T00:14:32;29.92;28.64;36.22;;
67310;Laerm;65444;51.438;5.982;2023-09-07T00:14:42;30.10;28.52;33.48;;
67310;Laerm;65444;51.438;5.982;2023-09-07T00:14:53;30.79;28.68;35.82;;
67310;Laerm;65444;51.438;5.982;2023-09-07T00:15:07;30.98;28.88;34.92;;
67310;Laerm;65444;51.438;5.982;2023-09-07T00:15:17;31.86;29.63;36.00;;
67310;Laerm;65444;51.438;5.982;2023-09-07T00:15:32;32.85;30.22;35.72;;
67310;Laerm;65444;51.438;5.982;2023-09-07T00:15:45;36.29;30.91;45.96;;
67310;Laerm;65444;51.438;5.982;2023-09-07T00:15:58;38.42;35.79;41.33;;
67310;Laerm;65444;51.438;5.982;2023-09-07T00:16:08;45.26;37.56;54.45;;
67310;Laerm;65444;51.438;5.982;2023-09-07T00:16:19;54.36;50.06;58.59;;
67310;Laerm;65444;51.438;5.982;2023-09-07T00:16:33;57.29;55.19;59.43;;
67310;Laerm;65444;51.438;5.982;2023-09-07T00:16:48;52.39;36.72;58.12;;
67310;Laerm;65444;51.438;5.982;2023-09-07T00:16:58;37.05;34.52;38.93;;
67310;Laerm;65444;51.438;5.982;2023-09-07T00:17:09;32.58;29.69;36.28;;
67310;Laerm;65444;51.438;5.982;2023-09-07T00:17:19;30.20;28.31;35.69;;
67310;Laerm;65444;51.438;5.982;2023-09-07T00:17:30;30.00;28.45;31.72;;
67310;Laerm;65444;51.438;5.982;2023-09-07T00:17:40;29.70;28.36;31.42;;
67310;Laerm;65444;51.438;5.982;2023-09-07T00:17:51;30.19;28.30;40.08;;
67310;Laerm;65444;51.438;5.982;2023-09-07T00:18:01;29.55;28.17;35.36;;
67310;Laerm;65444;51.438;5.982;2023-09-07T00:18:12;29.18;27.99;30.60;;
67310;Laerm;65444;51.438;5.982;2023-09-07T00:18:31;29.18;28.03;32.45;;
67310;Laerm;65444;51.438;5.982;2023-09-07T00:18:42;29.18;27.94;34.95;;
67310;Laerm;65444;51.438;5.982;2023-09-07T00:18:53;29.26;28.13;30.99;;
67310;Laerm;65444;51.438;5.982;2023-09-07T00:19:04;29.17;27.50;33.49;;
67310;Laerm;65444;51.438;5.982;2023-09-07T00:19:14;29.14;27.98;31.30;;
67310;Laerm;65444;51.438;5.982;2023-09-07T00:19:25;29.18;27.96;36.59;;
67310;Laerm;65444;51.438;5.982;2023-09-07T00:19:35;29.06;27.82;30.64;;
67310;Laerm;65444;51.438;5.982;2023-09-07T00:19:47;29.13;28.04;30.88;;
67310;Laerm;65444;51.438;5.982;2023-09-07T00:19:59;29.14;28.02;33.67;;
67310;Laerm;65444;51.438;5.982;2023-09-07T00:20:09;29.18;27.96;30.23;;
67310;Laerm;65444;51.438;5.982;2023-09-07T00:20:26;29.17;27.92;31.55;;
67310;Laerm;65444;51.438;5.982;2023-09-07T00:20:36;29.60;28.02;31.50;;
67310;Laerm;65444;51.438;5.982;2023-09-07T00:20:47;33.40;29.88;36.19;;
67310;Laerm;65444;51.438;5.982;2023-09-07T00:20:59;35.32;32.67;39.43;;
67310;Laerm;65444;51.438;5.982;2023-09-07T00:21:09;44.46;38.70;47.74;;
67310;Laerm;65444;51.438;5.982;2023-09-07T00:21:20;47.29;44.49;50.16;;
67310;Laerm;65444;51.438;5.982;2023-09-07T00:21:30;46.88;42.81;49.78;;
67310;Laerm;65444;51.438;5.982;2023-09-07T00:21:41;42.53;37.95;46.13;;
67310;Laerm;65444;51.438;5.982;2023-09-07T00:21:53;36.44;33.26;40.78;;
67310;Laerm;65444;51.438;5.982;2023-09-07T00:22:03;34.12;31.18;37.14;;
67310;Laerm;65444;51.438;5.982;2023-09-07T00:22:14;31.75;30.19;34.29;;
67310;Laerm;65444;51.438;5.982;2023-09-07T00:22:25;31.41;29.69;34.52;;
67310;Laerm;65444;51.438;5.982;2023-09-07T00:22:41;31.26;29.67;33.19;;
67310;Laerm;65444;51.438;5.982;2023-09-07T00:22:52;31.81;29.86;34.57;;
67310;Laerm;65444;51.438;5.982;2023-09-07T00:23:02;31.31;29.17;33.40;;
67310;Laerm;65444;51.438;5.982;2023-09-07T00:23:14;31.24;29.02;34.59;;
67310;Laerm;65444;51.438;5.982;2023-09-07T00:23:24;31.80;29.48;35.08;;
67310;Laerm;65444;51.438;5.982;2023-09-07T00:23:35;34.69;31.10;38.33;;
67310;Laerm;65444;51.438;5.982;2023-09-07T00:23:45;36.48;33.69;43.20;;
67310;Laerm;65444;51.438;5.982;2023-09-07T00:23:55;41.80;35.33;46.74;;
67310;Laerm;65444;51.438;5.982;2023-09-07T00:24:06;45.90;42.28;48.99;;
67310;Laerm;65444;51.438;5.982;2023-09-07T00:24:20;48.12;45.70;50.88;;
67310;Laerm;65444;51.438;5.982;2023-09-07T00:24:31;45.91;39.77;49.60;;
67310;Laerm;65444;51.438;5.982;2023-09-07T00:24:42;36.24;32.54;42.31;;
67310;Laerm;65444;51.438;5.982;2023-09-07T00:24:52;33.69;31.13;47.07;;
67310;Laerm;65444;51.438;5.982;2023-09-07T00:25:03;30.59;28.53;32.93;;
67310;Laerm;65444;51.438;5.982;2023-09-07T00:25:14;29.75;28.43;33.14;;
67310;Laerm;65444;51.438;5.982;2023-09-07T00:25:25;30.01;28.06;40.41;;
67310;Laerm;65444;51.438;5.982;2023-09-07T00:25:35;29.36;27.89;33.22;;
67310;Laerm;65444;51.438;5.982;2023-09-07T00:25:49;29.46;27.86;37.65;;
67310;Laerm;65444;51.438;5.982;2023-09-07T00:26:00;29.22;28.02;31.39;;
67310;Laerm;65444;51.438;5.982;2023-09-07T00:26:10;29.50;28.16;35.04;;
67310;Laerm;65444;51.438;5.982;2023-09-07T00:26:22;29.27;27.84;33.40;;
67310;Laerm;65444;51.438;5.982;2023-09-07T00:26:33;29.19;28.03;31.35;;
67310;Laerm;65444;51.438;5.982;2023-09-07T00:26:45;29.39;27.98;35.09;;
67310;Laerm;65444;51.438;5.982;2023-09-07T00:26:58;29.18;27.94;34.16;;
67310;Laerm;65444;51.438;5.982;2023-09-07T00:27:09;29.35;27.67;41.84;;
67310;Laerm;65444;51.438;5.982;2023-09-07T00:27:21;30.46;28.44;38.90;;
67310;Laerm;65444;51.438;5.982;2023-09-07T00:27:35;30.75;28.95;33.58;;
67310;Laerm;65444;51.438;5.982;2023-09-07T00:27:46;36.93;31.89;42.56;;
67310;Laerm;65444;51.438;5.982;2023-09-07T00:27:56;31.89;28.75;35.21;;
67310;Laerm;65444;51.438;5.982;2023-09-07T00:28:07;31.13;28.54;35.14;;
67310;Laerm;65444;51.438;5.982;2023-09-07T00:28:17;30.86;28.17;36.08;;
67310;Laerm;65444;51.438;5.982;2023-09-07T00:28:28;29.68;27.71;35.71;;
67310;Laerm;65444;51.438;5.982;2023-09-07T00:28:38;31.84;28.43;35.67;;
67310;Laerm;65444;51.438;5.982;2023-09-07T00:28:49;37.57;32.23;43.28;;
67310;Laerm;65444;51.438;5.982;2023-09-07T00:28:59;38.32;28.69;47.48;;
67310;Laerm;65444;51.438;5.982;2023-09-07T00:29:10;38.26;29.73;44.29;;
67310;Laerm;65444;51.438;5.982;2023-09-07T00:29:20;32.30;27.75;38.81;;
67310;Laerm;65444;51.438;5.982;2023-09-07T00:29:32;29.11;27.64;33.64;;
67310;Laerm;65444;51.438;5.982;2023-09-07T00:29:43;29.00;27.58;30.32;;
67310;Laerm;65444;51.438;5.982;2023-09-07T00:29:53;29.20;27.37;32.28;;
67310;Laerm;65444;51.438;5.982;2023-09-07T00:30:04;29.18;27.93;31.40;;
67310;Laerm;65444;51.438;5.982;2023-09-07T00:30:15;29.34;28.04;31.72;;
67310;Laerm;65444;51.438;5.982;2023-09-07T00:30:25;29.38;28.00;31.72;;
67310;Laerm;65444;51.438;5.982;2023-09-07T00:30:37;29.59;27.96;35.27;;
67310;Laerm;65444;51.438;5.982;2023-09-07T00:30:48;29.37;27.56;34.95;;
67310;Laerm;65444;51.438;5.982;2023-09-07T00:30:58;29.15;27.83;30.64;;
67310;Laerm;65444;51.438;5.982;2023-09-07T00:31:09;31.79;27.87;45.41;;
67310;Laerm;65444;51.438;5.982;2023-09-07T00:31:19;29.39;27.78;37.67;;
67310;Laerm;65444;51.438;5.982;2023-09-07T00:31:30;29.12;27.90;33.03;;
67310;Laerm;65444;51.438;5.982;2023-09-07T00:31:41;29.33;28.00;36.70;;
67310;Laerm;65444;51.438;5.982;2023-09-07T00:31:51;29.48;28.19;32.40;;
67310;Laerm;65444;51.438;5.982;2023-09-07T00:32:02;31.41;28.96;35.05;;
67310;Laerm;65444;51.438;5.982;2023-09-07T00:32:12;29.48;27.69;31.05;;
67310;Laerm;65444;51.438;5.982;2023-09-07T00:32:23;29.21;27.82;31.75;;
67310;Laerm;65444;51.438;5.982;2023-09-07T00:32:34;29.21;27.91;33.72;;
67310;Laerm;65444;51.438;5.982;2023-09-07T00:32:45;29.62;27.56;33.79;;
67310;Laerm;65444;51.438;5.982;2023-09-07T00:32:56;29.47;28.36;31.30;;
67310;Laerm;65444;51.438;5.982;2023-09-07T00:33:07;30.37;28.41;33.22;;
67310;Laerm;65444;51.438;5.982;2023-09-07T00:33:17;29.57;28.21;33.60;;
67310;Laerm;65444;51.438;5.982;2023-09-07T00:33:28;29.39;27.91;30.74;;
67310;Laerm;65444;51.438;5.982;2023-09-07T00:33:39;29.10;27.82;30.33;;
67310;Laerm;65444;51.438;5.982;2023-09-07T00:33:49;29.15;27.95;30.48;;
67310;Laerm;65444;51.438;5.982;2023-09-07T00:34:00;29.10;27.76;30.58;;
67310;Laerm;65444;51.438;5.982;2023-09-07T00:34:10;29.10;27.84;31.33;;
67310;Laerm;65444;51.438;5.982;2023-09-07T00:34:24;29.34;27.66;39.08;;
67310;Laerm;65444;51.438;5.982;2023-09-07T00:34:35;29.07;27.65;30.93;;
67310;Laerm;65444;51.438;5.982;2023-09-07T00:34:45;29.34;27.72;38.41;;
67310;Laerm;65444;51.438;5.982;2023-09-07T00:34:59;29.15;27.88;32.93;;
67310;Laerm;65444;51.438;5.982;2023-09-07T00:35:10;29.36;27.98;39.29;;
67310;Laerm;65444;51.438;5.982;2023-09-07T00:35:20;29.74;27.81;36.38;;
67310;Laerm;65444;51.438;5.982;2023-09-07T00:35:31;29.56;27.84;32.87;;
67310;Laerm;65444;51.438;5.982;2023-09-07T00:35:42;29.76;28.19;36.18;;
67310;Laerm;65444;51.438;5.982;2023-09-07T00:35:53;32.03;28.97;35.29;;
67310;Laerm;65444;51.438;5.982;2023-09-07T00:36:03;34.10;31.51;36.63;;
67310;Laerm;65444;51.438;5.982;2023-09-07T00:36:14;39.00;32.92;51.42;;
67310;Laerm;65444;51.438;5.982;2023-09-07T00:36:24;46.67;39.25;53.38;;
67310;Laerm;65444;51.438;5.982;2023-09-07T00:36:35;47.58;44.69;52.37;;
67310;Laerm;65444;51.438;5.982;2023-09-07T00:36:46;46.69;40.90;54.17;;
67310;Laerm;65444;51.438;5.982;2023-09-07T00:36:57;38.93;34.93;44.83;;
67310;Laerm;65444;51.438;5.982;2023-09-07T00:37:07;34.70;31.58;37.76;;
67310;Laerm;65444;51.438;5.982;2023-09-07T00:37:18;33.65;29.92;35.87;;
67310;Laerm;65444;51.438;5.982;2023-09-07T00:37:28;31.12;28.68;33.40;;
67310;Laerm;65444;51.438;5.982;2023-09-07T00:37:39;29.70;28.34;31.38;;
67310;Laerm;65444;51.438;5.982;2023-09-07T00:37:49;29.36;27.83;34.33;;
67310;Laerm;65444;51.438;5.982;2023-09-07T00:38:00;29.13;27.71;32.80;;
67310;Laerm;65444;51.438;5.982;2023-09-07T00:38:10;29.06;27.42;36.15;;
67310;Laerm;65444;51.438;5.982;2023-09-07T00:38:22;28.74;27.44;33.18;;
67310;Laerm;65444;51.438;5.982;2023-09-07T00:38:32;28.82;27.46;34.62;;
67310;Laerm;65444;51.438;5.982;2023-09-07T00:38:43;28.83;27.51;31.05;;
67310;Laerm;65444;51.438;5.982;2023-09-07T00:38:53;28.78;27.26;31.21;;
67310;Laerm;65444;51.438;5.982;2023-09-07T00:39:04;28.72;27.47;32.66;;
67310;Laerm;65444;51.438;5.982;2023-09-07T00:39:15;29.00;27.37;37.80;;
67310;Laerm;65444;51.438;5.982;2023-09-07T00:39:25;29.03;27.56;36.99;;
67310;Laerm;65444;51.438;5.982;2023-09-07T00:39:36;28.85;27.51;31.87;;
67310;Laerm;65444;51.438;5.982;2023-09-07T00:39:47;29.33;27.45;40.24;;
67310;Laerm;65444;51.438;5.982;2023-09-07T00:39:57;28.87;27.49;32.40;;
67310;Laerm;65444;51.438;5.982;2023-09-07T00:40:08;30.48;27.46;43.64;;
67310;Laerm;65444;51.438;5.982;2023-09-07T00:40:19;29.03;27.36;37.32;;
67310;Laerm;65444;51.438;5.982;2023-09-07T00:40:29;29.00;27.66;35.73;;
67310;Laerm;65444;51.438;5.982;2023-09-07T00:40:43;29.75;27.49;40.19;;
67310;Laerm;65444;51.438;5.982;2023-09-07T00:40:55;40.56;27.64;53.12;;
67310;Laerm;65444;51.438;5.982;2023-09-07T00:41:05;37.76;28.94;50.02;;
67310;Laerm;65444;51.438;5.982;2023-09-07T00:41:16;29.52;27.75;35.04;;
67310;Laerm;65444;51.438;5.982;2023-09-07T00:41:26;29.95;28.07;34.00;;
67310;Laerm;65444;51.438;5.982;2023-09-07T00:41:37;32.36;29.63;35.29;;
67310;Laerm;65444;51.438;5.982;2023-09-07T00:41:47;30.61;28.19;34.56;;
67310;Laerm;65444;51.438;5.982;2023-09-07T00:41:58;31.20;28.10;34.08;;
67310;Laerm;65444;51.438;5.982;2023-09-07T00:42:08;29.53;28.04;35.33;;
67310;Laerm;65444;51.438;5.982;2023-09-07T00:42:19;29.32;27.80;36.97;;
67310;Laerm;65444;51.438;5.982;2023-09-07T00:42:30;29.78;27.77;38.88;;
67310;Laerm;65444;51.438;5.982;2023-09-07T00:42:40;29.23;28.02;31.72;;
67310;Laerm;65444;51.438;5.982;2023-09-07T00:42:52;29.23;27.62;31.27;;
67310;Laerm;65444;51.438;5.982;2023-09-07T00:43:02;29.08;27.78;31.70;;
67310;Laerm;65444;51.438;5.982;2023-09-07T00:43:14;30.74;27.77;44.28;;
67310;Laerm;65444;51.438;5.982;2023-09-07T00:43:25;31.69;27.95;49.08;;
67310;Laerm;65444;51.438;5.982;2023-09-07T00:43:35;29.14;27.85;31.34;;
67310;Laerm;65444;51.438;5.982;2023-09-07T00:43:46;29.84;28.03;40.67;;
67310;Laerm;65444;51.438;5.982;2023-09-07T00:43:56;29.26;28.02;38.86;;
67310;Laerm;65444;51.438;5.982;2023-09-07T00:44:06;37.08;28.22;50.12;;
67310;Laerm;65444;51.438;5.982;2023-09-07T00:44:17;29.16;27.76;32.24;;
67310;Laerm;65444;51.438;5.982;2023-09-07T00:44:28;29.63;28.13;40.58;;
67310;Laerm;65444;51.438;5.982;2023-09-07T00:44:38;29.07;27.73;33.25;;
67310;Laerm;65444;51.438;5.982;2023-09-07T00:44:49;29.11;27.72;33.20;;
67310;Laerm;65444;51.438;5.982;2023-09-07T00:44:59;29.17;27.79;32.59;;
67310;Laerm;65444;51.438;5.982;2023-09-07T00:45:10;29.28;28.04;35.63;;
67310;Laerm;65444;51.438;5.982;2023-09-07T00:45:23;29.72;27.89;40.68;;
67310;Laerm;65444;51.438;5.982;2023-09-07T00:45:33;29.22;27.55;33.11;;
67310;Laerm;65444;51.438;5.982;2023-09-07T00:45:53;29.16;28.05;31.12;;
67310;Laerm;65444;51.438;5.982;2023-09-07T00:46:04;29.41;27.73;34.29;;
67310;Laerm;65444;51.438;5.982;2023-09-07T00:46:14;32.15;30.00;36.78;;
67310;Laerm;65444;51.438;5.982;2023-09-07T00:46:25;34.17;31.38;38.57;;
67310;Laerm;65444;51.438;5.982;2023-09-07T00:46:36;43.35;36.20;48.63;;
67310;Laerm;65444;51.438;5.982;2023-09-07T00:46:46;46.71;43.58;48.87;;
67310;Laerm;65444;51.438;5.982;2023-09-07T00:46:57;46.76;43.64;50.06;;
67310;Laerm;65444;51.438;5.982;2023-09-07T00:47:07;43.82;38.15;48.21;;
67310;Laerm;65444;51.438;5.982;2023-09-07T00:47:18;37.72;33.85;52.97;;
67310;Laerm;65444;51.438;5.982;2023-09-07T00:47:28;35.21;31.09;39.11;;
67310;Laerm;65444;51.438;5.982;2023-09-07T00:47:39;31.12;29.70;33.10;;
67310;Laerm;65444;51.438;5.982;2023-09-07T00:47:50;30.79;28.43;37.54;;
67310;Laerm;65444;51.438;5.982;2023-09-07T00:48:00;29.63;28.26;32.21;;
67310;Laerm;65444;51.438;5.982;2023-09-07T00:48:14;29.36;27.99;32.35;;
67310;Laerm;65444;51.438;5.982;2023-09-07T00:48:25;29.41;28.09;36.67;;
67310;Laerm;65444;51.438;5.982;2023-09-07T00:48:37;29.27;27.66;30.57;;
67310;Laerm;65444;51.438;5.982;2023-09-07T00:48:48;29.39;27.31;35.28;;
67310;Laerm;65444;51.438;5.982;2023-09-07T00:48:59;29.38;27.77;35.22;;
67310;Laerm;65444;51.438;5.982;2023-09-07T00:49:10;29.16;27.92;35.25;;
67310;Laerm;65444;51.438;5.982;2023-09-07T00:49:21;29.60;27.50;38.38;;
67310;Laerm;65444;51.438;5.982;2023-09-07T00:49:39;29.16;27.92;30.71;;
67310;Laerm;65444;51.438;5.982;2023-09-07T00:49:50;29.53;28.11;37.42;;
67310;Laerm;65444;51.438;5.982;2023-09-07T00:50:00;29.40;27.68;33.11;;
67310;Laerm;65444;51.438;5.982;2023-09-07T00:50:11;31.15;28.53;36.53;;
67310;Laerm;65444;51.438;5.982;2023-09-07T00:50:26;30.38;28.08;36.84;;
67310;Laerm;65444;51.438;5.982;2023-09-07T00:50:37;29.17;28.10;30.53;;
67310;Laerm;65444;51.438;5.982;2023-09-07T00:50:48;29.47;28.12;37.10;;
67310;Laerm;65444;51.438;5.982;2023-09-07T00:50:58;29.08;27.97;30.68;;
67310;Laerm;65444;51.438;5.982;2023-09-07T00:51:09;29.33;27.86;34.32;;
67310;Laerm;65444;51.438;5.982;2023-09-07T00:51:19;29.38;27.88;37.41;;
67310;Laerm;65444;51.438;5.982;2023-09-07T00:51:30;32.23;28.05;50.51;;
67310;Laerm;65444;51.438;5.982;2023-09-07T00:51:41;31.93;28.83;35.35;;
67310;Laerm;65444;51.438;5.982;2023-09-07T00:51:52;35.34;33.30;37.38;;
67310;Laerm;65444;51.438;5.982;2023-09-07T00:52:04;41.44;33.63;47.58;;
67310;Laerm;65444;51.438;5.982;2023-09-07T00:52:14;47.79;45.13;50.56;;
67310;Laerm;65444;51.438;5.982;2023-09-07T00:52:25;47.89;44.45;51.13;;
67310;Laerm;65444;51.438;5.982;2023-09-07T00:52:36;43.45;36.32;48.51;;
67310;Laerm;65444;51.438;5.982;2023-09-07T00:52:50;38.02;34.33;42.45;;
67310;Laerm;65444;51.438;5.982;2023-09-07T00:53:00;34.38;31.68;37.55;;
67310;Laerm;65444;51.438;5.982;2023-09-07T00:53:13;32.74;29.80;41.31;;
67310;Laerm;65444;51.438;5.982;2023-09-07T00:53:24;31.32;29.09;33.51;;
67310;Laerm;65444;51.438;5.982;2023-09-07T00:53:36;30.52;28.64;36.35;;
67310;Laerm;65444;51.438;5.982;2023-09-07T00:53:46;30.24;28.17;35.23;;
67310;Laerm;65444;51.438;5.982;2023-09-07T00:53:58;30.99;28.17;41.87;;
67310;Laerm;65444;51.438;5.982;2023-09-07T00:54:08;30.69;27.96;41.28;;
67310;Laerm;65444;51.438;5.982;2023-09-07T00:54:19;29.57;28.09;32.93;;
67310;Laerm;65444;51.438;5.982;2023-09-07T00:54:29;29.42;27.45;31.70;;
67310;Laerm;65444;51.438;5.982;2023-09-07T00:54:40;29.93;28.24;38.72;;
67310;Laerm;65444;51.438;5.982;2023-09-07T00:54:52;29.82;28.28;33.10;;
67310;Laerm;65444;51.438;5.982;2023-09-07T00:55:03;30.06;28.39;33.71;;
67310;Laerm;65444;51.438;5.982;2023-09-07T00:55:14;29.78;28.27;34.26;;
67310;Laerm;65444;51.438;5.982;2023-09-07T00:55:25;29.67;28.35;32.17;;
67310;Laerm;65444;51.438;5.982;2023-09-07T00:55:39;30.13;28.85;32.13;;
67310;Laerm;65444;51.438;5.982;2023-09-07T00:55:49;30.84;28.86;34.40;;
67310;Laerm;65444;51.438;5.982;2023-09-07T00:56:00;31.17;29.46;32.80;;
67310;Laerm;65444;51.438;5.982;2023-09-07T00:56:11;31.81;29.58;35.07;;
67310;Laerm;65444;51.438;5.982;2023-09-07T00:56:22;31.38;29.13;34.82;;
67310;Laerm;65444;51.438;5.982;2023-09-07T00:56:34;29.99;28.10;31.85;;
67310;Laerm;65444;51.438;5.982;2023-09-07T00:56:46;29.66;28.07;31.08;;
67310;Laerm;65444;51.438;5.982;2023-09-07T00:56:56;29.51;27.84;30.59;;
67310;Laerm;65444;51.438;5.982;2023-09-07T00:57:07;29.44;27.95;30.77;;
67310;Laerm;65444;51.438;5.982;2023-09-07T00:57:17;29.39;27.97;30.78;;
67310;Laerm;65444;51.438;5.982;2023-09-07T00:57:28;30.00;28.15;31.77;;
67310;Laerm;65444;51.438;5.982;2023-09-07T00:57:38;30.94;28.96;38.72;;
67310;Laerm;65444;51.438;5.982;2023-09-07T00:57:49;31.61;29.28;40.80;;
67310;Laerm;65444;51.438;5.982;2023-09-07T00:58:03;31.72;29.71;34.36;;
67310;Laerm;65444;51.438;5.982;2023-09-07T00:58:13;32.19;29.45;38.50;;
67310;Laerm;65444;51.438;5.982;2023-09-07T00:58:27;31.67;29.93;34.13;;
67310;Laerm;65444;51.438;5.982;2023-09-07T00:58:37;31.24;29.02;33.45;;
67310;Laerm;65444;51.438;5.982;2023-09-07T00:58:48;31.32;29.21;39.35;;
67310;Laerm;65444;51.438;5.982;2023-09-07T00:58:59;30.84;28.98;33.29;;
67310;Laerm;65444;51.438;5.982;2023-09-07T00:59:10;30.87;28.93;38.74;;
67310;Laerm;65444;51.438;5.982;2023-09-07T00:59:21;30.31;28.65;33.16;;
67310;Laerm;65444;51.438;5.982;2023-09-07T00:59:32;30.07;28.53;32.09;;
67310;Laerm;65444;51.438;5.982;2023-09-07T00:59:43;29.88;28.11;32.80;;
67310;Laerm;65444;51.438;5.982;2023-09-07T00:59:53;29.88;28.11;38.17;;
67310;Laerm;65444;51.438;5.982;2023-09-07T01:00:04;29.93;28.36;38.96;;
67310;Laerm;65444;51.438;5.982;2023-09-07T01:00:22;34.55;28.11;42.53;;
67310;Laerm;65444;51.438;5.982;2023-09-07T01:00:34;29.87;28.40;33.31;;
67310;Laerm;65444;51.438;5.982;2023-09-07T01:00:44;29.45;28.00;31.20;;
67310;Laerm;65444;51.438;5.982;2023-09-07T01:00:54;29.98;28.04;39.39;;
67310;Laerm;65444;51.438;5.982;2023-09-07T01:01:05;29.72;28.52;32.92;;
67310;Laerm;65444;51.438;5.982;2023-09-07T01:01:16;29.87;28.32;33.47;;
67310;Laerm;65444;51.438;5.982;2023-09-07T01:01:26;30.16;27.90;33.75;;
67310;Laerm;65444;51.438;5.982;2023-09-07T01:01:37;30.90;28.52;36.63;;
67310;Laerm;65444;51.438;5.982;2023-09-07T01:01:47;29.20;28.01;30.48;;
67310;Laerm;65444;51.438;5.982;2023-09-07T01:02:01;29.48;27.98;38.41;;
67310;Laerm;65444;51.438;5.982;2023-09-07T01:02:13;29.29;27.69;35.89;;
67310;Laerm;65444;51.438;5.982;2023-09-07T01:02:23;29.25;27.98;32.46;;
67310;Laerm;65444;51.438;5.982;2023-09-07T01:02:34;29.15;27.82;31.91;;